Madison, WI (53711)

6:21 AM CST on February 12, 2016 (GMT -0600)
Swan Creek | | Change Station
CLOSE
Current Station
Personal Weather Station
Location: Fitchburg, WI
Elevation: 909 ft
Nearby Weather Stations
Active Advisory: Wind Chill Advisory

Elev 909 ft 43.00 °N, 89.40 °W | Updated 5 seconds ago

Overcast
Overcast
14.4 °F
Feels Like 14 °F
N
2.0
Wind Variable Wind from WSW
Gusts 2.5 mph

Today
High -- | Low -- °F
--% Chance of Precip.
Yesterday
High -- | Low -- °F
Precip. -- in
Pressure 30.15 in
Visibility 10.0 miles
Clouds Scattered Clouds 3500 ft
Overcast 4400 ft
Windchill 14 °F
Dew Point 3 °F
Humidity 59%
Rainfall 0.00 in
Snow Depth Not available.
6:59 AM 5:24 PM
Waxing Crescent, 20% visible
METAR KC29 121215Z AUTO 30009KT 10SM SCT035 OVC044 M09/M13 A3015 RMK AO1 T10921130
Pressure 30.15 in
Visibility 10.0 miles
Clouds Scattered Clouds 3500 ft
Overcast 4400 ft
Windchill 14 °F
Dew Point 3 °F
Humidity 59%
Rainfall 0.00 in
Snow Depth Not available.
6:59 AM 5:24 PM
Waxing Crescent, 20% visible
METAR KC29 121215Z AUTO 30009KT 10SM SCT035 OVC044 M09/M13 A3015 RMK AO1 T10921130

10-Day Weather Forecast

Almanac

Astronomy

Feb. 12, 2016 Rise Set
Actual Time
Civil Twilight
Nautical Twilight
Astronomical Twilight
Moon
Length of Visible Light
Length of Day
Tomorrow will be .
, % of the Moon is Illuminated

Today's Extremes

State Highs State Lows

Community

WunderPhotos

Upload Photos

1,892,295 photos uploaded!

WunderBlog® & News

Nearby

Air Quality

  Air Quality AQ Index Pollutant
Not available.

Snow Depth

Station Depth Elevation

Earthquake Activity

City Distance Mag. Time & Date
Minimum magnitude displayed is 2.5.

Coastal Water Temperatures

Place Temperature

Stations

Nearby Weather Stations

Station Location Temp. Windchill Dew Point Humidity Wind Precip. Elev Updated Type
                   

Watches & Warnings

Wind Chill Advisory
Issued: 3:27 AM CST Feb. 12, 2016 – National Weather Service

... Wind Chill Advisory in effect from midnight tonight to 9 am
CST Saturday...

The National Weather Service in Milwaukee/Sullivan has issued a
Wind Chill Advisory... which is in effect from midnight tonight to
9 am CST Saturday.

* Tonight through early Saturday.

* Wind chill values of 20 to 25 degrees below zero are expected.

Precautionary/preparedness actions...

A Wind Chill Advisory means that very cold air and strong winds
will combine to generate low wind chills. This will result in
frost bite and lead to hypothermia if precautions are not taken.
If you must venture outdoors... make sure you wear a hat and
gloves.



Halbach